createdAt,value
2018-06-07T00:01:53.917Z,16.10
2018-06-07T00:04:21.570Z,16.10
2018-06-07T00:06:49.149Z,16.10
2018-06-07T00:09:16.739Z,16.10
2018-06-07T00:11:44.345Z,16.00
2018-06-07T00:16:39.659Z,15.90
2018-06-07T00:19:07.281Z,15.90
2018-06-07T00:21:34.923Z,15.90
2018-06-07T00:24:02.584Z,15.80
2018-06-07T00:26:30.199Z,15.80
2018-06-07T00:28:57.758Z,15.80
2018-06-07T00:31:25.348Z,15.80
2018-06-07T00:33:52.973Z,15.80
2018-06-07T00:36:20.602Z,15.80
2018-06-07T00:38:48.215Z,15.80
2018-06-07T00:41:15.820Z,15.80
2018-06-07T00:43:43.496Z,15.80
2018-06-07T00:46:11.118Z,15.80
2018-06-07T00:48:39.060Z,15.70
2018-06-07T00:51:06.634Z,15.70
2018-06-07T00:53:34.260Z,15.60
2018-06-07T00:56:01.878Z,15.60
2018-06-07T00:58:29.506Z,15.50
2018-06-07T01:00:57.120Z,15.60
2018-06-07T01:03:24.735Z,15.50
2018-06-07T01:05:52.377Z,15.50
2018-06-07T01:08:20.024Z,15.50
2018-06-07T01:10:48.644Z,15.50
2018-06-07T01:13:16.306Z,15.40
2018-06-07T01:15:43.978Z,15.40
2018-06-07T01:18:11.661Z,15.40
2018-06-07T01:20:39.293Z,15.30
2018-06-07T01:23:06.951Z,15.30
2018-06-07T01:25:34.541Z,15.30
2018-06-07T01:28:02.117Z,15.30
2018-06-07T01:30:35.581Z,15.30
2018-06-07T01:33:35.750Z,15.30
2018-06-07T01:36:03.406Z,15.30
2018-06-07T01:38:48.695Z,15.30
2018-06-07T01:41:16.449Z,15.30
2018-06-07T01:43:44.175Z,15.40
2018-06-07T01:48:39.388Z,15.40
2018-06-07T01:51:06.977Z,15.40
2018-06-07T01:53:34.517Z,15.50
2018-06-07T01:56:02.139Z,15.50
2018-06-07T01:58:29.718Z,15.50
2018-06-07T02:00:57.251Z,15.50
2018-06-07T02:03:24.898Z,15.50
2018-06-07T02:05:52.476Z,15.50
2018-06-07T02:08:20.110Z,15.50
2018-06-07T02:10:47.740Z,15.50
2018-06-07T02:13:15.297Z,15.50
2018-06-07T02:15:42.947Z,15.50
2018-06-07T02:18:10.629Z,15.40
2018-06-07T02:20:38.299Z,15.40
2018-06-07T02:23:05.896Z,15.40
2018-06-07T02:25:33.513Z,15.30
2018-06-07T02:28:01.097Z,15.30
2018-06-07T02:30:28.678Z,15.30
2018-06-07T02:32:56.327Z,15.30
2018-06-07T02:35:23.877Z,15.30
2018-06-07T02:37:51.481Z,15.30
2018-06-07T02:40:19.041Z,15.30
2018-06-07T02:42:46.680Z,15.30
2018-06-07T02:45:14.307Z,15.30
2018-06-07T02:47:41.932Z,15.20
2018-06-07T02:50:09.562Z,15.30
2018-06-07T02:52:37.138Z,15.30
2018-06-07T02:55:05.235Z,15.20
2018-06-07T02:57:32.822Z,15.20
2018-06-07T03:02:28.066Z,15.30
2018-06-07T03:04:55.713Z,15.20
2018-06-07T03:07:23.322Z,15.30
2018-06-07T03:09:50.993Z,15.20
2018-06-07T03:12:18.911Z,15.20
2018-06-07T03:14:46.555Z,15.20
2018-06-07T03:17:14.193Z,15.10
2018-06-07T03:19:41.850Z,15.10
2018-06-07T03:22:09.465Z,15.10
2018-06-07T03:24:37.150Z,15.20
2018-06-07T03:27:04.787Z,15.10
2018-06-07T03:29:32.419Z,15.20
2018-06-07T03:32:00.031Z,15.20
2018-06-07T03:34:27.692Z,15.20
2018-06-07T03:36:55.310Z,15.20
2018-06-07T03:39:22.936Z,15.30
2018-06-07T03:41:50.546Z,15.30
2018-06-07T03:44:18.168Z,15.30
2018-06-07T03:46:45.836Z,15.30
2018-06-07T03:49:13.732Z,15.40
2018-06-07T03:51:41.298Z,15.50
2018-06-07T03:54:09.543Z,15.60
2018-06-07T03:56:37.152Z,15.60
2018-06-07T03:59:04.792Z,15.80
2018-06-07T04:01:32.432Z,15.80
2018-06-07T04:04:00.183Z,15.90
2018-06-07T04:06:27.812Z,15.90
2018-06-07T04:08:55.387Z,15.90
2018-06-07T04:11:22.997Z,16.00
2018-06-07T04:13:50.598Z,16.20
2018-06-07T04:16:18.204Z,16.30
2018-06-07T04:18:45.880Z,16.30
2018-06-07T04:21:13.448Z,16.40
2018-06-07T04:23:41.049Z,16.40
2018-06-07T04:26:08.679Z,16.50
2018-06-07T04:28:36.330Z,16.50
2018-06-07T04:31:03.948Z,16.50
2018-06-07T04:33:31.574Z,16.60
2018-06-07T04:35:59.170Z,16.70
2018-06-07T04:38:26.716Z,16.80
2018-06-07T04:40:54.310Z,16.90
2018-06-07T04:43:21.916Z,16.70
2018-06-07T04:45:49.582Z,16.60
2018-06-07T04:48:17.246Z,16.80
2018-06-07T04:50:44.865Z,16.90
2018-06-07T04:53:12.510Z,17.20
2018-06-07T04:55:40.224Z,17.40
2018-06-07T04:58:07.851Z,17.50
2018-06-07T05:00:35.516Z,17.80
2018-06-07T05:03:03.138Z,17.90
2018-06-07T05:05:30.781Z,18.10
2018-06-07T05:07:58.417Z,18.20
2018-06-07T05:10:26.036Z,18.10
2018-06-07T05:12:53.587Z,18.50
2018-06-07T05:15:21.165Z,18.50
2018-06-07T05:17:48.772Z,18.60
2018-06-07T05:20:16.369Z,18.60
2018-06-07T05:22:43.962Z,18.60
2018-06-07T05:25:11.568Z,18.60
2018-06-07T05:27:39.161Z,18.80
2018-06-07T05:30:06.789Z,19.20
2018-06-07T05:32:34.388Z,19.40
2018-06-07T05:35:02.001Z,19.10
2018-06-07T05:37:29.562Z,19.50
2018-06-07T05:42:24.836Z,20.10
2018-06-07T05:44:52.438Z,20.00
2018-06-07T05:47:20.078Z,20.10
2018-06-07T05:49:47.699Z,20.10
2018-06-07T05:52:15.397Z,20.40
2018-06-07T05:54:43.037Z,20.50
2018-06-07T05:57:10.677Z,20.50
2018-06-07T05:59:38.368Z,20.80
2018-06-07T06:02:06.189Z,21.00
2018-06-07T06:04:33.813Z,20.80
2018-06-07T06:07:01.449Z,21.10
2018-06-07T06:09:29.128Z,21.30
2018-06-07T06:11:56.689Z,21.50
2018-06-07T06:14:24.612Z,21.50
2018-06-07T06:16:52.261Z,21.10
2018-06-07T06:19:19.909Z,21.20
2018-06-07T06:21:47.587Z,21.30
2018-06-07T06:26:42.974Z,21.70
2018-06-07T06:29:10.668Z,21.50
2018-06-07T06:31:38.422Z,21.40
2018-06-07T06:36:33.700Z,22.30
2018-06-07T06:39:01.357Z,22.50
2018-06-07T06:41:28.954Z,22.40
2018-06-07T06:43:56.593Z,22.40
2018-06-07T06:46:24.307Z,22.70
2018-06-07T06:48:51.952Z,22.60
2018-06-07T06:51:19.645Z,22.80
2018-06-07T06:56:15.069Z,23.30
2018-06-07T06:58:42.664Z,23.60
2018-06-07T07:01:10.289Z,23.60
2018-06-07T07:03:37.960Z,24.00
2018-06-07T07:06:05.595Z,23.90
2018-06-07T07:08:33.218Z,23.80
2018-06-07T07:11:00.850Z,24.00
2018-06-07T07:13:28.508Z,24.20
2018-06-07T07:15:56.094Z,24.20
2018-06-07T07:18:23.715Z,24.20
2018-06-07T07:20:51.362Z,24.20
2018-06-07T07:23:19.009Z,24.20
2018-06-07T07:25:46.594Z,24.20
2018-06-07T07:28:14.236Z,24.50
2018-06-07T07:30:41.865Z,24.20
2018-06-07T07:33:09.502Z,24.40
2018-06-07T07:35:37.119Z,24.40
2018-06-07T07:38:04.718Z,24.40
2018-06-07T07:40:32.329Z,24.60
2018-06-07T07:43:00.010Z,24.80
2018-06-07T07:45:27.658Z,25.00
2018-06-07T07:47:55.303Z,24.70
2018-06-07T07:50:22.886Z,25.20
2018-06-07T07:52:50.551Z,24.90
2018-06-07T07:55:18.200Z,24.90
2018-06-07T07:57:45.812Z,25.00
2018-06-07T08:00:13.527Z,25.20
2018-06-07T08:02:41.158Z,25.40
2018-06-07T08:05:08.799Z,25.50
2018-06-07T08:07:36.448Z,25.50
2018-06-07T08:10:04.402Z,25.70
2018-06-07T08:12:32.112Z,25.70
2018-06-07T08:15:06.493Z,25.80
2018-06-07T08:17:34.245Z,26.00
2018-06-07T08:20:02.046Z,26.10
2018-06-07T08:22:29.693Z,26.30
2018-06-07T08:24:57.373Z,26.10
2018-06-07T08:27:24.975Z,26.10
2018-06-07T08:29:52.639Z,26.10
2018-06-07T08:32:20.265Z,26.10
2018-06-07T08:34:47.920Z,26.20
2018-06-07T08:37:15.615Z,26.30
2018-06-07T08:39:43.354Z,26.20
2018-06-07T08:44:45.616Z,26.00
2018-06-07T08:49:41.339Z,26.10
2018-06-07T08:52:09.002Z,26.40
2018-06-07T08:54:36.666Z,26.60
2018-06-07T08:57:04.387Z,26.40
2018-06-07T08:59:32.038Z,26.50
2018-06-07T09:01:59.682Z,26.60
2018-06-07T09:04:27.292Z,26.80
2018-06-07T09:06:54.965Z,26.80
2018-06-07T09:09:22.670Z,26.60
2018-06-07T09:11:50.351Z,26.70
2018-06-07T09:14:18.040Z,26.80
2018-06-07T09:16:46.007Z,27.00
2018-06-07T09:19:13.623Z,27.20
2018-06-07T09:21:41.238Z,26.90
2018-06-07T09:24:08.928Z,27.10
2018-06-07T09:26:36.554Z,26.80
2018-06-07T09:29:04.212Z,27.10
2018-06-07T09:31:31.840Z,27.00
2018-06-07T09:36:27.273Z,27.30
2018-06-07T09:38:54.931Z,27.40
2018-06-07T09:41:22.542Z,27.20
2018-06-07T09:43:50.200Z,27.20
2018-06-07T09:46:17.853Z,26.90
2018-06-07T09:48:45.463Z,26.90
2018-06-07T09:53:40.783Z,27.20
2018-06-07T09:56:08.385Z,27.40
2018-06-07T09:58:35.989Z,27.50
2018-06-07T10:01:03.631Z,27.30
2018-06-07T10:03:31.253Z,27.20
2018-06-07T10:05:58.953Z,27.20
2018-06-07T10:08:26.562Z,27.30
2018-06-07T10:13:21.870Z,27.40
2018-06-07T10:15:49.459Z,27.50
2018-06-07T10:20:44.927Z,27.40
2018-06-07T10:23:12.600Z,27.60
2018-06-07T10:25:40.266Z,27.50
2018-06-07T10:28:07.939Z,27.50
2018-06-07T10:30:35.573Z,27.70
2018-06-07T10:33:03.243Z,27.60
2018-06-07T10:35:30.888Z,27.60
2018-06-07T10:37:58.459Z,27.70
2018-06-07T10:40:26.120Z,27.70
2018-06-07T10:42:53.751Z,27.80
2018-06-07T10:45:21.355Z,27.70
2018-06-07T10:47:48.949Z,27.70
2018-06-07T10:50:16.699Z,27.50
2018-06-07T10:52:44.312Z,27.70
2018-06-07T10:55:11.887Z,28.00
2018-06-07T10:57:39.550Z,28.00
2018-06-07T11:00:07.197Z,28.00
2018-06-07T11:02:34.826Z,28.10
2018-06-07T11:05:02.537Z,28.40
2018-06-07T11:07:30.231Z,28.40
2018-06-07T11:09:57.957Z,28.30
2018-06-07T11:12:25.553Z,28.40
2018-06-07T11:14:53.272Z,28.40
2018-06-07T11:17:20.904Z,28.60
2018-06-07T11:19:48.572Z,28.70
2018-06-07T11:22:16.196Z,28.70
2018-06-07T11:24:43.828Z,28.80
2018-06-07T11:27:11.451Z,28.90
2018-06-07T11:32:07.162Z,28.90
2018-06-07T11:34:34.947Z,29.00
2018-06-07T11:39:30.393Z,29.50
2018-06-07T11:41:58.041Z,29.50
2018-06-07T11:44:25.667Z,29.60
2018-06-07T11:46:53.393Z,29.60
2018-06-07T11:49:21.063Z,29.30
2018-06-07T11:51:48.629Z,29.80
2018-06-07T11:54:16.242Z,30.70
2018-06-07T11:56:43.871Z,31.90
2018-06-07T11:59:11.494Z,32.60
2018-06-07T12:01:39.109Z,33.60
2018-06-07T12:04:06.735Z,35.00
2018-06-07T12:06:34.330Z,36.40
2018-06-07T12:09:01.994Z,37.20
2018-06-07T12:11:29.608Z,38.30
2018-06-07T12:13:57.310Z,39.30
2018-06-07T12:16:24.924Z,40.70
2018-06-07T12:18:52.587Z,41.50
2018-06-07T12:21:20.155Z,41.00
2018-06-07T12:23:47.818Z,40.90
2018-06-07T12:26:15.553Z,42.40
2018-06-07T12:28:43.177Z,41.90
2018-06-07T12:31:10.807Z,40.70
2018-06-07T12:33:38.441Z,40.00
2018-06-07T12:36:06.045Z,42.50
2018-06-07T12:38:33.612Z,45.20
2018-06-07T12:41:02.529Z,44.40
2018-06-07T12:43:35.100Z,45.20
2018-06-07T12:46:02.748Z,45.40
2018-06-07T12:48:30.462Z,45.50
2018-06-07T12:50:58.085Z,45.90
2018-06-07T12:53:25.739Z,43.60
2018-06-07T12:55:53.423Z,43.40
2018-06-07T12:58:20.996Z,46.40
2018-06-07T13:00:48.918Z,47.40
2018-06-07T13:03:16.566Z,47.50
2018-06-07T13:05:44.227Z,47.60
2018-06-07T13:08:11.880Z,47.60
2018-06-07T13:10:39.491Z,48.10
2018-06-07T13:13:07.092Z,45.90
2018-06-07T13:15:34.741Z,46.10
2018-06-07T13:18:02.339Z,48.80
2018-06-07T13:20:30.093Z,49.30
2018-06-07T13:22:57.682Z,47.00
2018-06-07T13:25:25.234Z,46.40
2018-06-07T13:27:52.787Z,46.80
2018-06-07T13:30:20.409Z,48.00
2018-06-07T13:32:48.049Z,49.40
2018-06-07T13:35:15.709Z,50.00
2018-06-07T13:37:43.357Z,49.90
2018-06-07T13:40:10.974Z,47.60
2018-06-07T13:42:38.601Z,46.80
2018-06-07T13:45:06.205Z,46.80
2018-06-07T13:47:33.840Z,47.60
2018-06-07T13:50:01.403Z,49.00
2018-06-07T13:52:29.012Z,50.70
2018-06-07T13:54:56.569Z,50.80
2018-06-07T13:57:24.159Z,49.60
2018-06-07T13:59:52.335Z,46.00
2018-06-07T14:02:19.996Z,46.40
2018-06-07T14:04:47.554Z,48.30
2018-06-07T14:07:15.208Z,48.40
2018-06-07T14:09:42.821Z,48.90
2018-06-07T14:12:10.492Z,48.10
2018-06-07T14:14:38.221Z,48.00
2018-06-07T14:17:05.872Z,48.10
2018-06-07T14:19:33.455Z,49.40
2018-06-07T14:22:01.078Z,51.00
2018-06-07T14:24:28.710Z,48.10
2018-06-07T14:26:56.298Z,45.40
2018-06-07T14:29:23.938Z,45.70
2018-06-07T14:31:51.565Z,47.30
2018-06-07T14:36:46.823Z,49.30
2018-06-07T14:39:14.433Z,49.80
2018-06-07T14:41:42.039Z,50.10
2018-06-07T14:44:09.675Z,51.60
2018-06-07T14:49:04.983Z,51.10
2018-06-07T14:51:32.569Z,52.10
2018-06-07T14:56:27.817Z,50.20
2018-06-07T14:58:55.481Z,50.60
2018-06-07T15:01:23.104Z,47.30
2018-06-07T15:03:50.804Z,46.70
2018-06-07T15:06:18.535Z,48.70
2018-06-07T15:08:46.132Z,50.00
2018-06-07T15:11:13.723Z,49.70
2018-06-07T15:13:41.421Z,49.40
2018-06-07T15:16:09.063Z,49.30
2018-06-07T15:21:04.646Z,49.90
2018-06-07T15:23:32.346Z,47.90
2018-06-07T15:26:00.055Z,50.10
2018-06-07T15:28:27.714Z,51.60
2018-06-07T15:30:55.322Z,49.50
2018-06-07T15:33:22.991Z,50.90
2018-06-07T15:35:50.686Z,51.30
2018-06-07T15:38:18.309Z,49.00
2018-06-07T15:40:46.985Z,47.50
2018-06-07T15:43:14.668Z,45.70
2018-06-07T15:45:42.335Z,45.30
2018-06-07T15:48:09.984Z,45.30
2018-06-07T15:50:37.623Z,45.40
2018-06-07T15:53:05.253Z,44.20
2018-06-07T15:55:32.902Z,41.20
2018-06-07T15:58:00.580Z,42.30
2018-06-07T16:00:28.213Z,43.00
2018-06-07T16:02:55.863Z,44.50
2018-06-07T16:05:23.494Z,44.70
2018-06-07T16:07:51.190Z,43.80
2018-06-07T16:10:18.924Z,42.50
2018-06-07T16:12:46.727Z,42.90
2018-06-07T16:15:14.514Z,42.10
2018-06-07T16:17:42.188Z,42.30
2018-06-07T16:20:10.043Z,41.70
2018-06-07T16:22:37.735Z,40.00
2018-06-07T16:25:05.776Z,40.40
2018-06-07T16:27:33.478Z,40.50
2018-06-07T16:30:01.104Z,41.20
2018-06-07T16:34:56.438Z,40.00
2018-06-07T16:37:24.684Z,39.70
2018-06-07T16:39:52.372Z,38.90
2018-06-07T16:42:20.038Z,39.50
2018-06-07T16:44:47.644Z,39.20
2018-06-07T16:47:15.207Z,39.00
2018-06-07T16:49:42.813Z,37.70
2018-06-07T16:52:10.411Z,36.80
2018-06-07T16:54:38.067Z,36.70
2018-06-07T16:57:05.744Z,35.80
2018-06-07T16:59:33.357Z,36.50
2018-06-07T17:02:01.104Z,37.00
2018-06-07T17:04:28.718Z,37.20
2018-06-07T17:06:56.596Z,36.20
2018-06-07T17:09:24.282Z,37.60
2018-06-07T17:11:52.022Z,38.50
2018-06-07T17:14:19.691Z,39.50
2018-06-07T17:16:47.350Z,39.10
2018-06-07T17:19:14.969Z,39.60
2018-06-07T17:21:42.567Z,40.80
2018-06-07T17:24:10.234Z,40.50
2018-06-07T17:26:37.881Z,40.80
2018-06-07T17:29:05.557Z,41.20
2018-06-07T17:31:33.227Z,41.40
2018-06-07T17:34:00.967Z,40.70
2018-06-07T17:36:28.657Z,39.90
2018-06-07T17:38:56.348Z,39.10
2018-06-07T17:41:23.993Z,40.30
2018-06-07T17:43:51.665Z,40.00
2018-06-07T17:46:19.397Z,38.70
2018-06-07T17:48:47.138Z,38.90
2018-06-07T17:51:14.860Z,39.20
2018-06-07T17:53:42.600Z,38.60
2018-06-07T17:56:10.286Z,37.70
2018-06-07T17:58:38.055Z,37.80
2018-06-07T18:01:05.894Z,38.10
2018-06-07T18:03:33.644Z,37.20
2018-06-07T18:06:01.528Z,37.20
2018-06-07T18:08:29.326Z,36.10
2018-06-07T18:15:52.547Z,33.50
2018-06-07T18:18:20.237Z,32.50
2018-06-07T18:20:47.913Z,31.70
2018-06-07T18:23:15.668Z,31.30
2018-06-07T18:25:43.331Z,31.30
2018-06-07T18:28:11.023Z,30.70
2018-06-07T18:30:38.742Z,29.90
2018-06-07T18:33:06.503Z,29.30
2018-06-07T18:35:34.257Z,29.00
2018-06-07T18:38:02.038Z,28.50
2018-06-07T18:40:29.711Z,28.40
2018-06-07T18:42:57.679Z,28.10
2018-06-07T18:45:25.606Z,27.80
2018-06-07T18:47:53.399Z,27.40
2018-06-07T18:50:21.269Z,27.10
2018-06-07T18:52:48.971Z,26.90
2018-06-07T18:55:16.826Z,26.70
2018-06-07T18:57:44.867Z,26.50
2018-06-07T19:00:12.559Z,26.40
2018-06-07T19:02:40.274Z,26.20
2018-06-07T19:05:08.158Z,26.10
2018-06-07T19:07:36.066Z,26.00
2018-06-07T19:10:08.775Z,25.90
2018-06-07T19:12:36.539Z,25.70
2018-06-07T19:15:20.517Z,25.70
2018-06-07T19:17:48.413Z,25.50
2018-06-07T19:20:22.048Z,25.30
2018-06-07T19:22:50.153Z,25.30
2018-06-07T19:25:23.752Z,25.10
2018-06-07T19:27:52.566Z,24.90
2018-06-07T19:30:20.525Z,24.90
2018-06-07T19:32:53.926Z,24.80
2018-06-07T19:35:21.725Z,24.70
2018-06-07T19:37:49.507Z,24.70
2018-06-07T19:40:22.968Z,24.60
2018-06-07T19:42:51.255Z,24.50
2018-06-07T19:45:19.042Z,24.40
2018-06-07T19:47:47.294Z,24.20
2018-06-07T19:50:15.187Z,24.20
2018-06-07T19:52:43.050Z,24.10
2018-06-07T19:55:11.383Z,24.00
2018-06-07T19:57:39.045Z,23.90
2018-06-07T20:00:07.482Z,23.80
2018-06-07T20:02:35.230Z,23.70
2018-06-07T20:05:03.185Z,23.60
2018-06-07T20:07:31.009Z,23.50
2018-06-07T20:12:26.594Z,23.20
2018-06-07T20:14:54.280Z,23.20
2018-06-07T20:17:21.903Z,23.10
2018-06-07T20:19:49.662Z,23.00
2018-06-07T20:22:17.413Z,22.90
2018-06-07T20:24:45.126Z,22.90
2018-06-07T20:27:12.896Z,22.70
2018-06-07T20:29:42.617Z,22.60
2018-06-07T20:32:10.619Z,22.60
2018-06-07T20:34:38.413Z,22.50
2018-06-07T20:37:06.084Z,22.50
2018-06-07T20:39:33.733Z,22.40
2018-06-07T20:42:01.355Z,22.20
2018-06-07T20:44:29.089Z,22.20
2018-06-07T20:46:56.715Z,22.20
2018-06-07T20:49:24.451Z,22.10
2018-06-07T20:51:52.193Z,22.00
2018-06-07T20:54:19.988Z,21.90
2018-06-07T20:56:47.851Z,21.70
2018-06-07T20:59:15.612Z,21.70
2018-06-07T21:01:43.479Z,21.60
2018-06-07T21:04:11.254Z,21.50
2018-06-07T21:06:39.080Z,21.40
2018-06-07T21:09:08.512Z,21.40
2018-06-07T21:11:36.508Z,21.40
2018-06-07T21:14:04.814Z,21.30
2018-06-07T21:16:32.994Z,21.30
2018-06-07T21:19:00.746Z,21.20
2018-06-07T21:21:28.474Z,21.20
2018-06-07T21:23:56.154Z,21.10
2018-06-07T21:26:24.012Z,21.10
2018-06-07T21:28:51.902Z,21.00
2018-06-07T21:31:19.723Z,21.00
2018-06-07T21:38:43.027Z,20.90
2018-06-07T21:41:11.188Z,20.80
2018-06-07T21:43:38.882Z,20.70
2018-06-07T21:46:06.872Z,20.70
2018-06-07T21:48:34.619Z,20.60
2018-06-07T21:51:02.387Z,20.60
2018-06-07T21:53:30.135Z,20.50
2018-06-07T21:55:57.934Z,20.50
2018-06-07T21:58:25.848Z,20.40
2018-06-07T22:00:53.537Z,20.30
2018-06-07T22:03:22.386Z,20.20
2018-06-07T22:05:50.086Z,20.20
2018-06-07T22:08:17.976Z,20.20
2018-06-07T22:10:45.709Z,20.10
2018-06-07T22:13:13.463Z,20.10
2018-06-07T22:15:41.297Z,20.00
2018-06-07T22:18:09.053Z,19.80
2018-06-07T22:20:36.996Z,19.80
2018-06-07T22:23:05.041Z,19.70
2018-06-07T22:25:32.805Z,19.70
2018-06-07T22:28:02.760Z,19.70
2018-06-07T22:30:30.780Z,19.60
2018-06-07T22:32:58.563Z,19.50
2018-06-07T22:37:54.550Z,19.40
2018-06-07T22:40:22.367Z,19.40
2018-06-07T22:42:50.177Z,19.30
2018-06-07T22:45:18.003Z,19.40
2018-06-07T22:47:45.742Z,19.40
2018-06-07T22:50:13.406Z,19.40
2018-06-07T22:52:41.212Z,19.40
2018-06-07T22:55:09.136Z,19.30
2018-06-07T22:57:37.006Z,19.40
2018-06-07T23:00:04.911Z,19.20
2018-06-07T23:05:01.628Z,19.30
2018-06-07T23:07:29.378Z,19.30
2018-06-07T23:09:57.215Z,19.30
2018-06-07T23:12:25.124Z,19.30
2018-06-07T23:14:52.889Z,19.20
2018-06-07T23:17:20.578Z,19.10
2018-06-07T23:19:48.576Z,19.10
2018-06-07T23:22:16.314Z,19.10
2018-06-07T23:27:12.035Z,18.90
2018-06-07T23:29:39.921Z,18.80
2018-06-07T23:32:07.953Z,18.80
2018-06-07T23:34:35.605Z,18.70
2018-06-07T23:37:03.275Z,18.60
2018-06-07T23:39:30.937Z,18.60
2018-06-07T23:41:58.569Z,18.50
2018-06-07T23:44:26.156Z,18.40
2018-06-07T23:46:53.735Z,18.30
2018-06-07T23:49:21.346Z,18.30
2018-06-07T23:51:48.961Z,18.10
2018-06-07T23:54:16.614Z,18.10
2018-06-07T23:56:44.241Z,18.20
2018-06-07T23:59:11.834Z,18.10
